Time;durP1;ratioP1;P1;durP2;ratioP2;P2;SDS_P1;SDS_P2;PMS_P1;PMS_P2;Temp;Humidity;BMP_temperature;BMP_pressure;BME280_temperature;BME280_humidity;BME280_pressure;Samples;Min_cycle;Max_cycle;Signal;HPM_P1;HPM_P2
2022/01/14 00:02:08;;;;;;;0.98;0.98;;;;;;;;;;4987449;28;20027;-70
2022/01/14 00:04:34;;;;;;;3.83;0.93;;;;;;;;;;4981985;28;20027;-70
2022/01/14 00:07:01;;;;;;;1.38;1.33;;;;;;;;;;4991208;28;20045;-71
2022/01/14 00:09:27;;;;;;;0.35;0.35;;;;;;;;;;4981800;28;20026;-71
2022/01/14 00:11:56;;;;;;;3.28;1.58;;;;;;;;;;4980713;28;20532;-70
2022/01/14 00:14:40;;;;;;;4.50;3.38;;;;;;;;;;4982174;28;20026;-70
2022/01/14 00:17:07;;;;;;;0.80;0.80;;;;;;;;;;4992320;28;20033;-70
2022/01/14 00:19:34;;;;;;;0.55;0.55;;;;;;;;;;4994664;28;20728;-71
2022/01/14 00:22:05;;;;;;;0.80;0.65;;;;;;;;;;4985749;28;20023;-70
2022/01/14 00:31:40;;;;;;;1.10;1.05;;;;;;;;;;5001015;28;20489;-70
2022/01/14 00:35:18;;;;;;;1.60;1.27;;;;;;;;;;4995833;28;20025;-71
2022/01/14 00:37:44;;;;;;;0.68;0.47;;;;;;;;;;4977424;28;20023;-70
2022/01/14 00:40:10;;;;;;;2.15;1.50;;;;;;;;;;4987103;28;20054;-70
2022/01/14 00:42:36;;;;;;;0.70;0.70;;;;;;;;;;4978502;28;20027;-70
2022/01/14 00:45:06;;;;;;;0.43;0.43;;;;;;;;;;4984818;28;20106;-71
2022/01/14 00:47:34;;;;;;;0.82;0.75;;;;;;;;;;4975131;28;20058;-71
2022/01/14 00:50:00;;;;;;;1.55;1.45;;;;;;;;;;4970273;28;20035;-70
2022/01/14 00:52:26;;;;;;;1.10;1.05;;;;;;;;;;4978065;28;20115;-71
2022/01/14 00:54:52;;;;;;;1.15;1.05;;;;;;;;;;4965185;28;20031;-70
2022/01/14 00:57:29;;;;;;;1.00;1.00;;;;;;;;;;4978026;28;20561;-70
2022/01/14 00:59:55;;;;;;;0.30;0.30;;;;;;;;;;4968940;28;20035;-71
2022/01/14 01:02:21;;;;;;;0.43;0.40;;;;;;;;;;4981466;28;20027;-71
2022/01/14 01:04:49;;;;;;;1.30;0.95;;;;;;;;;;4975534;28;20122;-70
2022/01/14 01:07:15;;;;;;;0.38;0.38;;;;;;;;;;4974449;28;20030;-71
2022/01/14 01:09:46;;;;;;;1.25;1.15;;;;;;;;;;4983559;28;20485;-70
2022/01/14 01:15:16;;;;;;;0.43;0.43;;;;;;;;;;4926297;29;20078;-70
2022/01/14 01:17:43;;;;;;;1.35;0.77;;;;;;;;;;4958963;28;20405;-71
2022/01/14 01:20:14;;;;;;;0.75;0.75;;;;;;;;;;4973774;28;20102;-70
2022/01/14 01:22:40;;;;;;;0.88;0.88;;;;;;;;;;4978984;28;20097;-70
2022/01/14 01:25:08;;;;;;;1.35;1.27;;;;;;;;;;4972322;28;20050;-70
2022/01/14 01:27:38;;;;;;;0.65;0.65;;;;;;;;;;4971461;28;20438;-71
2022/01/14 01:32:50;;;;;;;0.93;0.93;;;;;;;;;;4969207;28;20084;-70
2022/01/14 01:35:16;;;;;;;3.28;2.83;;;;;;;;;;4974216;28;20481;-71
2022/01/14 01:37:42;;;;;;;4.18;2.38;;;;;;;;;;4969705;28;20125;-70
2022/01/14 01:40:09;;;;;;;1.08;1.08;;;;;;;;;;4962689;28;20023;-70
2022/01/14 01:42:35;;;;;;;1.55;1.48;;;;;;;;;;4965963;28;20043;-71
2022/01/14 01:45:05;;;;;;;0.65;0.65;;;;;;;;;;4956235;28;20020;-71
2022/01/14 01:47:31;;;;;;;2.03;1.25;;;;;;;;;;4979188;28;20108;-71
2022/01/14 01:49:57;;;;;;;1.88;0.98;;;;;;;;;;4986931;28;20023;-71
2022/01/14 01:52:24;;;;;;;0.55;0.55;;;;;;;;;;4983725;28;20662;-70
2022/01/14 01:54:50;;;;;;;0.70;0.68;;;;;;;;;;4995359;28;20413;-70
2022/01/14 01:57:16;;;;;;;1.20;1.10;;;;;;;;;;4997160;28;20152;-71
2022/01/14 01:59:42;;;;;;;1.60;1.50;;;;;;;;;;4988594;28;20176;-70
2022/01/14 02:02:08;;;;;;;2.08;1.98;;;;;;;;;;4987187;28;20034;-71
2022/01/14 02:04:34;;;;;;;0.93;0.93;;;;;;;;;;4999382;28;20022;-71
2022/01/14 02:07:00;;;;;;;4.95;2.75;;;;;;;;;;4984228;28;20030;-71
2022/01/14 02:09:26;;;;;;;2.42;2.28;;;;;;;;;;4987223;28;20389;-71
2022/01/14 02:11:52;;;;;;;2.40;2.17;;;;;;;;;;4997440;28;20029;-70
2022/01/14 02:14:51;;;;;;;0.20;0.20;;;;;;;;;;4997549;28;20034;-70
2022/01/14 02:17:30;;;;;;;0.40;0.40;;;;;;;;;;4993965;28;20572;-70
2022/01/14 02:22:53;;;;;;;2.33;1.63;;;;;;;;;;4986823;28;20203;-71
2022/01/14 02:25:30;;;;;;;5.57;3.20;;;;;;;;;;4982676;28;20053;-71
2022/01/14 02:28:05;;;;;;;3.47;1.83;;;;;;;;;;4985190;28;20112;-70
2022/01/14 02:30:32;;;;;;;2.47;2.17;;;;;;;;;;4976274;28;20037;-70
2022/01/14 02:32:58;;;;;;;6.53;2.45;;;;;;;;;;4985190;28;20454;-71
2022/01/14 02:35:24;;;;;;;3.35;2.58;;;;;;;;;;4981941;28;20026;-71
2022/01/14 02:37:51;;;;;;;5.05;1.75;;;;;;;;;;4987592;28;20397;-71
2022/01/14 02:40:18;;;;;;;1.70;1.60;;;;;;;;;;4988909;28;20070;-70
2022/01/14 02:42:44;;;;;;;0.47;0.47;;;;;;;;;;4990036;28;20142;-71
2022/01/14 02:45:11;;;;;;;2.25;1.40;;;;;;;;;;4989431;28;20034;-70
2022/01/14 02:47:38;;;;;;;1.63;1.52;;;;;;;;;;4987562;28;20042;-71
2022/01/14 02:50:06;;;;;;;1.60;0.85;;;;;;;;;;4996443;28;20041;-71
2022/01/14 02:52:53;;;;;;;0.88;0.85;;;;;;;;;;4991565;28;20243;-70
2022/01/14 02:55:27;;;;;;;1.20;1.10;;;;;;;;;;4980719;28;20026;-70
2022/01/14 02:57:54;;;;;;;4.55;1.52;;;;;;;;;;4988858;28;20492;-70
2022/01/14 03:00:21;;;;;;;13.68;2.22;;;;;;;;;;4987942;28;20491;-71
2022/01/14 03:02:48;;;;;;;3.38;2.83;;;;;;;;;;5000684;28;20026;-70
2022/01/14 03:05:16;;;;;;;1.20;0.98;;;;;;;;;;4975651;28;20455;-70
2022/01/14 03:07:42;;;;;;;1.92;1.45;;;;;;;;;;4985846;28;20037;-71
2022/01/14 03:10:09;;;;;;;0.40;0.38;;;;;;;;;;4987635;28;20022;-71
2022/01/14 03:12:35;;;;;;;1.30;1.30;;;;;;;;;;4990732;28;20122;-70
2022/01/14 03:15:02;;;;;;;0.85;0.85;;;;;;;;;;4984384;28;20056;-71
2022/01/14 03:17:28;;;;;;;0.85;0.85;;;;;;;;;;4997627;28;20751;-71
2022/01/14 03:19:55;;;;;;;1.25;1.15;;;;;;;;;;4994325;28;20054;-71
2022/01/14 03:22:34;;;;;;;5.97;2.90;;;;;;;;;;4993132;28;20392;-71
2022/01/14 03:27:45;;;;;;;1.45;1.45;;;;;;;;;;4973379;28;20115;-70
2022/01/14 03:30:12;;;;;;;0.73;0.73;;;;;;;;;;4987988;28;20480;-71
2022/01/14 03:32:38;;;;;;;3.03;2.13;;;;;;;;;;4998444;28;20038;-70
2022/01/14 03:35:04;;;;;;;1.48;1.38;;;;;;;;;;4984624;28;20499;-71
2022/01/14 03:37:30;;;;;;;1.35;0.65;;;;;;;;;;4996685;28;20040;-70
2022/01/14 03:39:59;;;;;;;2.08;1.48;;;;;;;;;;5001389;28;20034;-70
2022/01/14 03:42:25;;;;;;;1.20;1.10;;;;;;;;;;4991041;28;20034;-70
2022/01/14 03:44:51;;;;;;;1.50;1.40;;;;;;;;;;4996839;28;20038;-71
2022/01/14 03:47:17;;;;;;;7.90;1.95;;;;;;;;;;4997690;28;20141;-70
2022/01/14 03:49:43;;;;;;;0.93;0.93;;;;;;;;;;4979840;28;20067;-70
2022/01/14 03:52:09;;;;;;;0.98;0.98;;;;;;;;;;4983644;28;20030;-71
2022/01/14 03:54:35;;;;;;;1.00;0.95;;;;;;;;;;4985006;28;20546;-70
2022/01/14 03:57:02;;;;;;;0.50;0.43;;;;;;;;;;4989263;28;20050;-70
2022/01/14 03:59:28;;;;;;;0.13;0.13;;;;;;;;;;4994712;28;20037;-70
2022/01/14 04:01:54;;;;;;;3.25;2.13;;;;;;;;;;4987606;28;20554;-70
2022/01/14 04:04:20;;;;;;;5.75;1.58;;;;;;;;;;4974757;28;20094;-70
2022/01/14 04:06:45;;;;;;;1.80;0.93;;;;;;;;;;4995211;28;20830;-71
2022/01/14 04:09:11;;;;;;;0.65;0.65;;;;;;;;;;4987268;28;20022;-71
2022/01/14 04:11:39;;;;;;;2.08;1.65;;;;;;;;;;4997877;28;20045;-71
2022/01/14 04:16:54;;;;;;;1.10;1.00;;;;;;;;;;4969087;28;20045;-71
2022/01/14 04:19:20;;;;;;;2.17;0.93;;;;;;;;;;4989074;28;20034;-71
2022/01/14 04:21:46;;;;;;;0.60;0.60;;;;;;;;;;4996887;28;20481;-75
2022/01/14 04:24:12;;;;;;;0.60;0.60;;;;;;;;;;4990953;28;20025;-73
2022/01/14 04:26:38;;;;;;;16.02;2.42;;;;;;;;;;4994530;28;20058;-70
2022/01/14 04:29:04;;;;;;;0.52;0.40;;;;;;;;;;4986596;28;20099;-69
2022/01/14 04:31:30;;;;;;;1.10;0.95;;;;;;;;;;4992313;28;20033;-71
2022/01/14 04:33:56;;;;;;;3.88;2.25;;;;;;;;;;4994165;28;20176;-72
2022/01/14 04:36:22;;;;;;;0.73;0.73;;;;;;;;;;4985730;28;20037;-73
2022/01/14 04:38:48;;;;;;;0.52;0.52;;;;;;;;;;4995016;28;20026;-71
2022/01/14 04:41:13;;;;;;;0.40;0.40;;;;;;;;;;4992706;28;20057;-71
2022/01/14 04:43:39;;;;;;;3.92;2.25;;;;;;;;;;4984863;28;20096;-71
2022/01/14 04:48:33;;;;;;;3.63;2.15;;;;;;;;;;4987177;28;20485;-71
2022/01/14 04:50:59;;;;;;;0.90;0.90;;;;;;;;;;4980947;28;20018;-71
2022/01/14 04:53:25;;;;;;;0.47;0.47;;;;;;;;;;4988095;28;20614;-70
2022/01/14 04:55:52;;;;;;;0.70;0.68;;;;;;;;;;4983450;28;20029;-69
2022/01/14 04:58:18;;;;;;;0.85;0.85;;;;;;;;;;4988925;28;20041;-70
2022/01/14 05:00:44;;;;;;;15.43;1.17;;;;;;;;;;4990989;28;20433;-70
2022/01/14 05:03:16;;;;;;;0.57;0.57;;;;;;;;;;4982311;28;20134;-69
2022/01/14 05:05:46;;;;;;;1.27;0.80;;;;;;;;;;5003888;28;20022;-70
2022/01/14 05:08:19;;;;;;;0.43;0.43;;;;;;;;;;4999065;28;20026;-70
2022/01/14 05:13:24;;;;;;;0.30;0.30;;;;;;;;;;4993289;28;20046;-70
2022/01/14 05:15:50;;;;;;;3.55;3.00;;;;;;;;;;5009783;28;20136;-69
2022/01/14 05:18:16;;;;;;;2.03;1.90;;;;;;;;;;5004825;28;20531;-69
2022/01/14 05:20:42;;;;;;;1.65;1.55;;;;;;;;;;4999839;28;20241;-69
2022/01/14 05:23:08;;;;;;;1.05;1.02;;;;;;;;;;4991350;28;20019;-70
2022/01/14 05:25:34;;;;;;;0.68;0.63;;;;;;;;;;4980301;28;20042;-70
2022/01/14 05:28:00;;;;;;;2.28;0.75;;;;;;;;;;4986573;28;20018;-70
2022/01/14 05:30:27;;;;;;;0.38;0.38;;;;;;;;;;4985928;28;20034;-70
2022/01/14 05:32:54;;;;;;;2.75;2.08;;;;;;;;;;5006026;28;20033;-69
2022/01/14 05:35:21;;;;;;;1.67;1.05;;;;;;;;;;4988526;28;20034;-70
2022/01/14 05:37:47;;;;;;;0.20;0.20;;;;;;;;;;4997087;28;20053;-70
2022/01/14 05:40:14;;;;;;;0.68;0.68;;;;;;;;;;4999294;28;20478;-70
2022/01/14 05:42:40;;;;;;;0.30;0.30;;;;;;;;;;4990584;28;20081;-70
2022/01/14 05:45:07;;;;;;;0.35;0.35;;;;;;;;;;4983361;28;20062;-70
2022/01/14 05:47:34;;;;;;;25.27;2.17;;;;;;;;;;4997624;28;20141;-69
2022/01/14 05:50:00;;;;;;;1.58;1.48;;;;;;;;;;4987193;28;20034;-70
2022/01/14 05:52:26;;;;;;;1.48;1.38;;;;;;;;;;5003123;28;20117;-70
2022/01/14 05:54:53;;;;;;;2.13;1.88;;;;;;;;;;4994015;28;20453;-70
2022/01/14 05:57:20;;;;;;;0.65;0.65;;;;;;;;;;4986086;28;20026;-70
2022/01/14 05:59:46;;;;;;;0.75;0.75;;;;;;;;;;4992006;28;20133;-70
2022/01/14 06:02:12;;;;;;;2.10;2.00;;;;;;;;;;4995140;28;20496;-70
2022/01/14 06:04:38;;;;;;;0.77;0.77;;;;;;;;;;4985170;28;20037;-70
2022/01/14 06:07:04;;;;;;;0.63;0.63;;;;;;;;;;5003626;28;20477;-70
2022/01/14 06:09:30;;;;;;;4.82;3.03;;;;;;;;;;4992348;28;20018;-70
2022/01/14 06:11:56;;;;;;;0.03;0.03;;;;;;;;;;4988367;28;20018;-69
2022/01/14 06:14:22;;;;;;;1.13;0.82;;;;;;;;;;4987255;28;20026;-70
2022/01/14 06:16:48;;;;;;;1.50;1.40;;;;;;;;;;4995361;28;20436;-69
2022/01/14 06:19:16;;;;;;;0.17;0.17;;;;;;;;;;4985744;28;20072;-70
2022/01/14 06:21:42;;;;;;;0.43;0.43;;;;;;;;;;5007910;28;20512;-69
2022/01/14 06:24:08;;;;;;;0.93;0.93;;;;;;;;;;4995888;28;20030;-70
2022/01/14 06:26:34;;;;;;;1.25;0.60;;;;;;;;;;4989906;28;20390;-69
2022/01/14 06:29:00;;;;;;;1.25;1.17;;;;;;;;;;4986977;28;20046;-70
2022/01/14 06:31:26;;;;;;;1.55;0.90;;;;;;;;;;4969584;28;20847;-70
2022/01/14 06:33:52;;;;;;;1.20;0.70;;;;;;;;;;4984073;28;20038;-71
2022/01/14 06:36:18;;;;;;;2.33;0.90;;;;;;;;;;4991259;28;20049;-70
2022/01/14 06:38:44;;;;;;;2.05;1.48;;;;;;;;;;5001112;28;20374;-70
2022/01/14 06:41:10;;;;;;;0.40;0.40;;;;;;;;;;4983920;28;20490;-71
2022/01/14 06:43:36;;;;;;;1.27;1.17;;;;;;;;;;4982307;28;20026;-70
2022/01/14 06:46:01;;;;;;;0.95;0.95;;;;;;;;;;4989278;28;20064;-70
2022/01/14 06:48:28;;;;;;;0.45;0.43;;;;;;;;;;4990971;28;20381;-71
2022/01/14 06:50:55;;;;;;;0.50;0.50;;;;;;;;;;4989283;28;20017;-71
2022/01/14 06:53:20;;;;;;;2.00;1.48;;;;;;;;;;4985182;28;20054;-70
2022/01/14 06:55:46;;;;;;;0.63;0.63;;;;;;;;;;4983220;28;20092;-70
2022/01/14 06:58:12;;;;;;;1.17;1.13;;;;;;;;;;4980114;28;20588;-71
2022/01/14 07:00:38;;;;;;;0.70;0.70;;;;;;;;;;4983418;28;20045;-70
2022/01/14 07:03:04;;;;;;;0.82;0.60;;;;;;;;;;4982662;28;20052;-70
2022/01/14 07:05:30;;;;;;;4.18;1.52;;;;;;;;;;4983938;28;20050;-70
2022/01/14 07:07:56;;;;;;;0.85;0.85;;;;;;;;;;4978813;28;20034;-70
2022/01/14 07:10:22;;;;;;;0.30;0.30;;;;;;;;;;4999610;28;20072;-70
2022/01/14 07:12:48;;;;;;;0.68;0.68;;;;;;;;;;4997711;28;20034;-70
2022/01/14 07:15:15;;;;;;;0.60;0.60;;;;;;;;;;5005684;28;20104;-71
2022/01/14 07:17:41;;;;;;;2.88;1.70;;;;;;;;;;4986298;28;20087;-71
2022/01/14 07:20:11;;;;;;;2.28;0.95;;;;;;;;;;4988350;28;20030;-70
2022/01/14 07:22:37;;;;;;;3.13;2.25;;;;;;;;;;4988932;28;20027;-70
2022/01/14 07:25:04;;;;;;;0.40;0.40;;;;;;;;;;5000504;28;20117;-71
2022/01/14 07:27:30;;;;;;;0.43;0.43;;;;;;;;;;4991479;28;20030;-70
2022/01/14 07:29:56;;;;;;;1.20;1.20;;;;;;;;;;4988016;28;20022;-70
2022/01/14 07:32:23;;;;;;;2.47;1.63;;;;;;;;;;4981437;28;20032;-70
2022/01/14 07:34:49;;;;;;;4.85;1.85;;;;;;;;;;4991989;28;20053;-72
2022/01/14 07:37:16;;;;;;;1.85;1.23;;;;;;;;;;4990427;28;20034;-71
2022/01/14 07:39:42;;;;;;;4.13;0.70;;;;;;;;;;4981437;28;20125;-71
2022/01/14 07:42:08;;;;;;;3.40;0.98;;;;;;;;;;4981407;28;20031;-71
2022/01/14 07:44:34;;;;;;;0.63;0.63;;;;;;;;;;4994549;28;20133;-71
2022/01/14 07:47:00;;;;;;;0.98;0.98;;;;;;;;;;4988943;28;20134;-71
2022/01/14 07:49:26;;;;;;;2.75;0.88;;;;;;;;;;4994896;28;20400;-71
2022/01/14 07:51:52;;;;;;;1.65;0.82;;;;;;;;;;4990238;28;20030;-70
2022/01/14 07:54:18;;;;;;;1.23;1.13;;;;;;;;;;4997623;28;20038;-70
2022/01/14 07:56:47;;;;;;;0.73;0.73;;;;;;;;;;4988561;28;20038;-71
2022/01/14 07:59:14;;;;;;;5.70;1.08;;;;;;;;;;4984337;28;20263;-71
2022/01/14 08:01:40;;;;;;;0.95;0.90;;;;;;;;;;4979096;28;20512;-71
2022/01/14 08:04:06;;;;;;;2.90;2.67;;;;;;;;;;4976046;28;20054;-71
2022/01/14 08:06:47;;;;;;;0.73;0.65;;;;;;;;;;4987226;28;20053;-70
2022/01/14 08:09:17;;;;;;;1.20;1.10;;;;;;;;;;4978848;28;20408;-71
2022/01/14 08:11:44;;;;;;;1.13;1.05;;;;;;;;;;4984350;28;20516;-70
2022/01/14 08:14:09;;;;;;;2.90;2.70;;;;;;;;;;4981266;28;20026;-71
2022/01/14 08:16:35;;;;;;;0.85;0.85;;;;;;;;;;4985219;28;20092;-71
2022/01/14 08:19:01;;;;;;;0.85;0.85;;;;;;;;;;4980070;28;20038;-71
2022/01/14 08:21:27;;;;;;;0.52;0.50;;;;;;;;;;4978729;28;20026;-71
2022/01/14 08:23:54;;;;;;;0.75;0.75;;;;;;;;;;4978321;28;20041;-71
2022/01/14 08:26:26;;;;;;;0.82;0.75;;;;;;;;;;4990646;28;20030;-71
2022/01/14 08:28:59;;;;;;;0.88;0.88;;;;;;;;;;4987616;28;20090;-70
2022/01/14 08:31:27;;;;;;;0.60;0.60;;;;;;;;;;4984640;28;20018;-77
2022/01/14 08:33:53;;;;;;;2.92;1.35;;;;;;;;;;4985338;28;20434;-70
2022/01/14 08:36:21;;;;;;;0.85;0.85;;;;;;;;;;5010441;28;20018;-73
2022/01/14 08:38:47;;;;;;;0.20;0.20;;;;;;;;;;4990235;28;20034;-78
2022/01/14 08:41:13;;;;;;;1.60;1.50;;;;;;;;;;5000550;28;20353;-72
2022/01/14 08:43:47;;;;;;;18.40;1.83;;;;;;;;;;4987652;28;20030;-73
2022/01/14 08:46:15;;;;;;;0.20;0.20;;;;;;;;;;4985007;28;20050;-71
2022/01/14 08:48:41;;;;;;;3.50;1.02;;;;;;;;;;4987667;28;20088;-71
2022/01/14 08:51:07;;;;;;;1.05;0.88;;;;;;;;;;4985424;28;20042;-72
2022/01/14 08:53:33;;;;;;;0.85;0.85;;;;;;;;;;4994492;28;20504;-72
2022/01/14 08:55:59;;;;;;;0.20;0.20;;;;;;;;;;4982898;28;20072;-72
2022/01/14 08:58:27;;;;;;;2.10;0.98;;;;;;;;;;4992491;28;20022;-72
2022/01/14 09:00:57;;;;;;;0.65;0.65;;;;;;;;;;4989088;28;20022;-73
2022/01/14 09:03:23;;;;;;;1.20;0.98;;;;;;;;;;4995996;28;20026;-71
2022/01/14 09:05:52;;;;;;;8.20;1.95;;;;;;;;;;4987865;28;20045;-71
2022/01/14 09:08:18;;;;;;;0.55;0.55;;;;;;;;;;4996785;28;20076;-71
2022/01/14 09:10:44;;;;;;;1.25;0.68;;;;;;;;;;4997822;28;20034;-71
2022/01/14 09:13:11;;;;;;;1.38;1.17;;;;;;;;;;4988790;28;20038;-71
2022/01/14 09:15:37;;;;;;;2.20;1.75;;;;;;;;;;4985462;28;20812;-70
2022/01/14 09:18:04;;;;;;;1.30;1.20;;;;;;;;;;4985822;28;20026;-71
2022/01/14 09:20:30;;;;;;;0.25;0.25;;;;;;;;;;4986924;28;20022;-72
2022/01/14 09:22:58;;;;;;;0.30;0.30;;;;;;;;;;4990734;28;20030;-69
2022/01/14 09:25:25;;;;;;;1.23;1.05;;;;;;;;;;4987370;28;20022;-74
2022/01/14 09:27:52;;;;;;;4.32;0.73;;;;;;;;;;4987597;28;20025;-72
2022/01/14 09:30:20;;;;;;;0.22;0.22;;;;;;;;;;4979373;28;20026;-74
2022/01/14 09:32:46;;;;;;;0.40;0.40;;;;;;;;;;4980073;28;20037;-73
2022/01/14 09:35:13;;;;;;;11.80;1.95;;;;;;;;;;4996833;28;20117;-73
2022/01/14 09:37:40;;;;;;;1.88;1.27;;;;;;;;;;4998709;28;20061;-73
2022/01/14 09:40:06;;;;;;;2.30;2.08;;;;;;;;;;4987390;28;20034;-73
2022/01/14 09:42:32;;;;;;;1.23;1.05;;;;;;;;;;4991660;28;20019;-73
2022/01/14 09:44:59;;;;;;;5.68;0.88;;;;;;;;;;4982586;28;20038;-73
2022/01/14 09:47:26;;;;;;;0.60;0.60;;;;;;;;;;4985761;28;20046;-73
2022/01/14 09:49:52;;;;;;;0.45;0.45;;;;;;;;;;4981130;28;20508;-73
2022/01/14 09:52:18;;;;;;;2.72;1.83;;;;;;;;;;4983842;28;20060;-73
2022/01/14 09:54:45;;;;;;;2.65;2.03;;;;;;;;;;4974654;28;20133;-73
2022/01/14 09:57:12;;;;;;;0.70;0.70;;;;;;;;;;4982081;28;20082;-72
2022/01/14 09:59:39;;;;;;;0.60;0.60;;;;;;;;;;4998136;28;20197;-73
2022/01/14 10:02:04;;;;;;;1.35;1.25;;;;;;;;;;4978277;28;20548;-73
2022/01/14 10:04:30;;;;;;;0.88;0.88;;;;;;;;;;4987538;28;20035;-72
2022/01/14 10:06:58;;;;;;;0.55;0.55;;;;;;;;;;4991281;28;20108;-73
2022/01/14 10:09:35;;;;;;;0.90;0.55;;;;;;;;;;4986480;28;20417;-73
2022/01/14 10:12:20;;;;;;;1.35;1.08;;;;;;;;;;4985187;28;20033;-73
2022/01/14 10:14:55;;;;;;;1.00;0.98;;;;;;;;;;4987806;28;20507;-72
2022/01/14 10:17:21;;;;;;;0.65;0.63;;;;;;;;;;4980287;28;20046;-73
2022/01/14 10:19:48;;;;;;;0.93;0.85;;;;;;;;;;4983552;28;20022;-72
2022/01/14 10:22:19;;;;;;;1.35;1.25;;;;;;;;;;4983567;28;20033;-72
2022/01/14 10:24:56;;;;;;;1.67;0.82;;;;;;;;;;4985028;28;20034;-73
2022/01/14 10:27:32;;;;;;;0.20;0.20;;;;;;;;;;4985330;28;20038;-73
2022/01/14 10:30:07;;;;;;;0.30;0.30;;;;;;;;;;4984757;28;20022;-72
2022/01/14 10:32:34;;;;;;;0.65;0.65;;;;;;;;;;4959306;28;20046;-73
2022/01/14 10:35:07;;;;;;;4.53;2.05;;;;;;;;;;4989788;28;20034;-73
2022/01/14 10:37:34;;;;;;;0.25;0.25;;;;;;;;;;4986274;28;20022;-73
2022/01/14 10:40:00;;;;;;;0.13;0.13;;;;;;;;;;5004334;28;20030;-72
2022/01/14 10:42:30;;;;;;;0.77;0.25;;;;;;;;;;4999479;28;20034;-73
2022/01/14 10:45:13;;;;;;;4.25;3.10;;;;;;;;;;4988280;28;20061;-73
2022/01/14 10:47:39;;;;;;;0.10;0.10;;;;;;;;;;4995932;28;20038;-73
2022/01/14 10:50:05;;;;;;;3.05;0.57;;;;;;;;;;4974578;28;20101;-73
2022/01/14 10:52:31;;;;;;;0.98;0.90;;;;;;;;;;4979387;28;20041;-73
2022/01/14 10:54:58;;;;;;;0.10;0.10;;;;;;;;;;4986754;28;20035;-73
2022/01/14 10:57:25;;;;;;;0.98;0.73;;;;;;;;;;5004617;28;20054;-73
2022/01/14 10:59:52;;;;;;;0.95;0.95;;;;;;;;;;4983360;28;20094;-73
2022/01/14 11:02:35;;;;;;;0.10;0.10;;;;;;;;;;4987421;28;20019;-73
2022/01/14 11:05:09;;;;;;;3.33;2.17;;;;;;;;;;4979734;28;20031;-73
2022/01/14 11:07:35;;;;;;;0.75;0.75;;;;;;;;;;4988001;28;20054;-73
2022/01/14 11:10:02;;;;;;;12.27;1.50;;;;;;;;;;4994032;28;20029;-73
2022/01/14 11:12:29;;;;;;;1.33;0.88;;;;;;;;;;4998192;28;20586;-73
2022/01/14 11:14:55;;;;;;;0.75;0.75;;;;;;;;;;4977718;28;20061;-72
2022/01/14 11:17:21;;;;;;;0.00;0.00;;;;;;;;;;4987118;28;20513;-73
2022/01/14 11:19:47;;;;;;;6.82;0.85;;;;;;;;;;4993847;28;20033;-73
2022/01/14 11:24:59;;;;;;;4.57;1.65;;;;;;;;;;4982640;28;20061;-72
2022/01/14 11:27:26;;;;;;;1.85;1.60;;;;;;;;;;4988670;28;20018;-72
2022/01/14 11:29:57;;;;;;;0.30;0.30;;;;;;;;;;4988149;28;20113;-72
2022/01/14 11:32:24;;;;;;;0.60;0.60;;;;;;;;;;4990747;28;20086;-72
2022/01/14 11:34:50;;;;;;;1.55;1.38;;;;;;;;;;5004126;28;20030;-73
2022/01/14 11:37:38;;;;;;;1.35;0.88;;;;;;;;;;4982542;28;20031;-73
2022/01/14 11:40:06;;;;;;;0.47;0.47;;;;;;;;;;4972294;28;20042;-73
2022/01/14 11:42:52;;;;;;;0.10;0.10;;;;;;;;;;4999113;28;20080;-73
2022/01/14 11:45:41;;;;;;;0.08;0.08;;;;;;;;;;4967033;28;20029;-73
2022/01/14 11:48:07;;;;;;;0.20;0.20;;;;;;;;;;4983072;28;20100;-73
2022/01/14 11:50:33;;;;;;;0.30;0.30;;;;;;;;;;4999928;28;20029;-72
2022/01/14 11:53:01;;;;;;;0.17;0.17;;;;;;;;;;5000125;28;20026;-72
2022/01/14 11:55:36;;;;;;;0.20;0.20;;;;;;;;;;4989026;28;20481;-73
2022/01/14 11:58:03;;;;;;;0.55;0.52;;;;;;;;;;4981297;28;20033;-73
2022/01/14 12:00:33;;;;;;;1.00;0.98;;;;;;;;;;4994794;28;20489;-73
2022/01/14 12:03:14;;;;;;;0.45;0.45;;;;;;;;;;4985351;28;20105;-73
2022/01/14 12:05:53;;;;;;;0.68;0.55;;;;;;;;;;4981504;28;20089;-73
2022/01/14 12:08:20;;;;;;;1.20;0.73;;;;;;;;;;4999664;28;20030;-73
2022/01/14 12:10:51;;;;;;;0.52;0.52;;;;;;;;;;5006617;28;20028;-73
2022/01/14 12:16:04;;;;;;;1.55;1.45;;;;;;;;;;4983421;28;20092;-73
2022/01/14 12:18:48;;;;;;;0.38;0.38;;;;;;;;;;4996250;28;20042;-74
2022/01/14 12:21:14;;;;;;;0.52;0.52;;;;;;;;;;4988177;28;20034;-74
2022/01/14 12:23:41;;;;;;;0.10;0.10;;;;;;;;;;4984931;28;20030;-73
2022/01/14 12:26:14;;;;;;;0.30;0.30;;;;;;;;;;4991335;28;20531;-73
2022/01/14 12:28:40;;;;;;;0.38;0.38;;;;;;;;;;4990581;28;20502;-73
2022/01/14 12:31:06;;;;;;;0.43;0.43;;;;;;;;;;4989000;28;20522;-73
2022/01/14 12:33:42;;;;;;;0.20;0.20;;;;;;;;;;4996172;28;20105;-73
2022/01/14 12:36:12;;;;;;;0.32;0.32;;;;;;;;;;4996347;28;20087;-74
2022/01/14 12:38:42;;;;;;;0.03;0.03;;;;;;;;;;4993375;28;20050;-74
2022/01/14 12:41:23;;;;;;;0.95;0.88;;;;;;;;;;4992953;28;20036;-78
2022/01/14 12:43:49;;;;;;;0.47;0.47;;;;;;;;;;4996147;28;20061;-74
2022/01/14 12:46:35;;;;;;;0.15;0.15;;;;;;;;;;4989118;28;20420;-74
2022/01/14 12:49:02;;;;;;;1.05;0.88;;;;;;;;;;4990533;28;20088;-74
2022/01/14 12:51:29;;;;;;;0.43;0.43;;;;;;;;;;4992833;28;20528;-74
2022/01/14 12:53:57;;;;;;;0.15;0.15;;;;;;;;;;4986737;28;20034;-74
2022/01/14 12:56:24;;;;;;;0.10;0.10;;;;;;;;;;4991537;28;20362;-74
2022/01/14 12:59:00;;;;;;;0.38;0.38;;;;;;;;;;5004075;28;20060;-73
2022/01/14 13:01:31;;;;;;;0.10;0.10;;;;;;;;;;4984827;28;20389;-75
2022/01/14 13:03:58;;;;;;;0.20;0.20;;;;;;;;;;4982535;28;20492;-72
2022/01/14 13:06:24;;;;;;;1.02;0.52;;;;;;;;;;4988338;28;20051;-71
2022/01/14 13:08:54;;;;;;;2.42;0.93;;;;;;;;;;4985740;28;20275;-72
2022/01/14 13:11:32;;;;;;;0.98;0.98;;;;;;;;;;4988541;28;20519;-71
2022/01/14 13:13:59;;;;;;;2.05;0.90;;;;;;;;;;4982752;28;20492;-72
2022/01/14 13:16:25;;;;;;;1.35;0.68;;;;;;;;;;4993674;28;20110;-72
2022/01/14 13:18:54;;;;;;;0.52;0.52;;;;;;;;;;4996415;28;20515;-72
2022/01/14 13:21:23;;;;;;;0.22;0.22;;;;;;;;;;4984256;28;20034;-72
2022/01/14 13:23:49;;;;;;;0.40;0.40;;;;;;;;;;4986106;28;20024;-73
2022/01/14 13:26:15;;;;;;;0.40;0.40;;;;;;;;;;4988590;28;20026;-73
2022/01/14 13:28:41;;;;;;;0.05;0.05;;;;;;;;;;4987352;28;20097;-73
2022/01/14 13:31:10;;;;;;;0.52;0.45;;;;;;;;;;4997250;28;20064;-73
2022/01/14 13:33:37;;;;;;;0.77;0.77;;;;;;;;;;4985465;28;20121;-74
2022/01/14 13:36:03;;;;;;;0.10;0.10;;;;;;;;;;4970745;28;20030;-73
2022/01/14 13:38:29;;;;;;;0.50;0.50;;;;;;;;;;4987884;28;20018;-73
2022/01/14 13:40:57;;;;;;;0.20;0.20;;;;;;;;;;4986176;28;20037;-72
2022/01/14 13:43:26;;;;;;;2.28;0.82;;;;;;;;;;4991096;28;20045;-73
2022/01/14 13:46:02;;;;;;;0.70;0.70;;;;;;;;;;4987027;28;20027;-72
2022/01/14 13:48:28;;;;;;;0.20;0.20;;;;;;;;;;4992718;28;20022;-74
2022/01/14 13:51:03;;;;;;;1.20;1.10;;;;;;;;;;4988803;28;20037;-73
2022/01/14 13:53:36;;;;;;;0.75;0.75;;;;;;;;;;4979598;28;20081;-73
2022/01/14 13:56:10;;;;;;;1.00;1.00;;;;;;;;;;4984924;28;20030;-73
2022/01/14 13:58:37;;;;;;;0.10;0.10;;;;;;;;;;4993334;28;20037;-73
2022/01/14 14:01:05;;;;;;;0.50;0.50;;;;;;;;;;4989706;28;20088;-73
2022/01/14 14:03:42;;;;;;;0.00;0.00;;;;;;;;;;4987121;28;20034;-73
2022/01/14 14:06:25;;;;;;;0.68;0.65;;;;;;;;;;4982656;28;20037;-73
2022/01/14 14:09:05;;;;;;;0.20;0.20;;;;;;;;;;4989968;28;20030;-73
2022/01/14 14:16:54;;;;;;;0.47;0.47;;;;;;;;;;4985971;28;20041;-73
2022/01/14 14:19:20;;;;;;;1.55;0.82;;;;;;;;;;4987456;28;20472;-73
2022/01/14 14:21:55;;;;;;;0.15;0.15;;;;;;;;;;4985159;28;20386;-73
2022/01/14 14:24:22;;;;;;;3.55;2.25;;;;;;;;;;4988287;28;20018;-72
2022/01/14 14:26:48;;;;;;;5.63;1.70;;;;;;;;;;4991770;28;20030;-73
2022/01/14 14:29:25;;;;;;;0.10;0.10;;;;;;;;;;4984388;28;20030;-73
2022/01/14 14:31:51;;;;;;;0.32;0.30;;;;;;;;;;4986083;28;20745;-79
2022/01/14 14:34:17;;;;;;;2.28;1.02;;;;;;;;;;4982434;28;20720;-73
2022/01/14 14:36:44;;;;;;;0.47;0.47;;;;;;;;;;4992812;28;20038;-78
2022/01/14 14:39:11;;;;;;;0.70;0.70;;;;;;;;;;4983400;28;20030;-73
2022/01/14 14:41:37;;;;;;;0.45;0.45;;;;;;;;;;4980817;28;20036;-73
2022/01/14 14:44:03;;;;;;;0.90;0.77;;;;;;;;;;4986424;28;20069;-74
2022/01/14 14:46:31;;;;;;;0.40;0.40;;;;;;;;;;4987863;28;20082;-74
2022/01/14 14:48:57;;;;;;;0.75;0.75;;;;;;;;;;4982476;28;20034;-74
2022/01/14 14:51:23;;;;;;;0.10;0.10;;;;;;;;;;4984014;28;20026;-73
2022/01/14 14:53:49;;;;;;;0.05;0.05;;;;;;;;;;4982225;28;20030;-74
2022/01/14 14:56:15;;;;;;;0.20;0.20;;;;;;;;;;4971702;28;20046;-75
2022/01/14 14:58:41;;;;;;;0.00;0.00;;;;;;;;;;4984457;28;20030;-74
2022/01/14 15:01:09;;;;;;;0.00;0.00;;;;;;;;;;4988446;28;20065;-74
2022/01/14 15:03:36;;;;;;;0.20;0.20;;;;;;;;;;4991670;28;20026;-73
2022/01/14 15:06:02;;;;;;;0.22;0.22;;;;;;;;;;4980946;28;20238;-74
2022/01/14 15:08:28;;;;;;;0.70;0.70;;;;;;;;;;4983720;28;20130;-74
2022/01/14 15:10:58;;;;;;;0.00;0.00;;;;;;;;;;4983029;28;20041;-73
2022/01/14 15:13:27;;;;;;;0.60;0.60;;;;;;;;;;4978974;28;20026;-73
2022/01/14 15:18:22;;;;;;;0.52;0.52;;;;;;;;;;4977176;28;20031;-73
2022/01/14 15:20:48;;;;;;;0.00;0.00;;;;;;;;;;4985869;28;20385;-74
2022/01/14 15:23:16;;;;;;;0.30;0.30;;;;;;;;;;4986492;28;20445;-73
2022/01/14 15:25:42;;;;;;;0.82;0.80;;;;;;;;;;4979553;28;20027;-75
2022/01/14 15:28:08;;;;;;;2.92;1.27;;;;;;;;;;4985590;28;20045;-75
2022/01/14 15:30:35;;;;;;;0.40;0.40;;;;;;;;;;4984455;28;20034;-75